createdAt,value
2023-05-16T00:02:08.899Z,97110.00
2023-05-16T00:04:38.929Z,97096.00
2023-05-16T00:07:07.195Z,97094.00
2023-05-16T00:09:35.338Z,97094.00
2023-05-16T00:12:03.524Z,97099.00
2023-05-16T00:14:31.718Z,97089.00
2023-05-16T00:17:01.140Z,97092.00
2023-05-16T00:19:30.034Z,97084.00
2023-05-16T00:21:59.462Z,97099.00
2023-05-16T00:24:27.856Z,97096.00
2023-05-16T00:26:56.003Z,97089.00
2023-05-16T00:29:24.428Z,97097.00
2023-05-16T00:31:52.775Z,97107.00
2023-05-16T00:34:22.798Z,97098.00
2023-05-16T00:36:52.962Z,97097.00
2023-05-16T00:39:22.464Z,97087.00
2023-05-16T00:41:50.889Z,97097.00
2023-05-16T00:44:19.309Z,97090.00
2023-05-16T00:46:47.708Z,97097.00
2023-05-16T00:49:16.141Z,97100.00
2023-05-16T00:51:44.478Z,97093.00
2023-05-16T00:54:13.427Z,97094.00
2023-05-16T00:56:43.205Z,97090.00
2023-05-16T00:59:12.150Z,97099.00
2023-05-16T01:01:42.393Z,97088.00
2023-05-16T01:04:10.950Z,97099.00
2023-05-16T01:06:39.228Z,97107.00
2023-05-16T01:09:08.167Z,97102.00
2023-05-16T01:11:51.971Z,97095.00
2023-05-16T01:14:39.629Z,97112.00
2023-05-16T01:17:19.115Z,97108.00
2023-05-16T01:20:11.253Z,97091.00
2023-05-16T01:23:02.775Z,97106.00
2023-05-16T01:25:46.793Z,97104.00
2023-05-16T01:28:18.385Z,97088.00
2023-05-16T01:30:46.836Z,97086.00
2023-05-16T01:33:15.033Z,97085.00
2023-05-16T01:35:56.680Z,97097.00
2023-05-16T01:38:28.441Z,97097.00
2023-05-16T01:41:06.792Z,97096.00
2023-05-16T01:43:43.617Z,97098.00
2023-05-16T01:46:21.600Z,97097.00
2023-05-16T01:48:56.831Z,97094.00
2023-05-16T01:51:30.769Z,97091.00
2023-05-16T01:54:07.519Z,97101.00
2023-05-16T01:56:38.852Z,97089.00
2023-05-16T01:59:11.241Z,97090.00
2023-05-16T02:01:39.520Z,97095.00
2023-05-16T02:04:07.820Z,97092.00
2023-05-16T02:06:37.097Z,97109.00
2023-05-16T02:09:05.257Z,97106.00
2023-05-16T02:11:33.413Z,97106.00
2023-05-16T02:14:01.490Z,97092.00
2023-05-16T02:16:32.082Z,97103.00
2023-05-16T02:19:00.256Z,97109.00
2023-05-16T02:21:28.460Z,97105.00
2023-05-16T02:23:56.520Z,97108.00
2023-05-16T02:26:24.615Z,97116.00
2023-05-16T02:28:52.749Z,97101.00
2023-05-16T02:31:33.017Z,97099.00
2023-05-16T02:34:01.906Z,97099.00
2023-05-16T02:36:30.818Z,97109.00
2023-05-16T02:38:58.930Z,97104.00
2023-05-16T02:41:27.033Z,97096.00
2023-05-16T02:43:55.190Z,97105.00
2023-05-16T02:46:25.812Z,97114.00
2023-05-16T02:48:56.016Z,97107.00
2023-05-16T02:51:26.955Z,97112.00
2023-05-16T02:53:59.763Z,97118.00
2023-05-16T02:56:28.542Z,97111.00
2023-05-16T02:58:56.954Z,97108.00
2023-05-16T03:01:25.507Z,97112.00
2023-05-16T03:03:55.249Z,97114.00
2023-05-16T03:06:24.556Z,97109.00
2023-05-16T03:08:53.241Z,97119.00
2023-05-16T03:11:24.037Z,97119.00
2023-05-16T03:13:52.193Z,97113.00
2023-05-16T03:16:20.503Z,97110.00
2023-05-16T03:18:48.714Z,97114.00
2023-05-16T03:21:18.245Z,97102.00
2023-05-16T03:23:46.486Z,97107.00
2023-05-16T03:26:14.688Z,97110.00
2023-05-16T03:28:42.788Z,97111.00
2023-05-16T03:31:11.050Z,97109.00
2023-05-16T03:33:39.417Z,97099.00
2023-05-16T03:36:08.564Z,97117.00
2023-05-16T03:38:38.504Z,97103.00
2023-05-16T03:41:06.765Z,97103.00
2023-05-16T03:43:34.874Z,97102.00
2023-05-16T03:46:03.216Z,97102.00
2023-05-16T03:48:31.460Z,97115.00
2023-05-16T03:50:59.556Z,97106.00
2023-05-16T03:53:27.733Z,97113.00
2023-05-16T03:55:57.202Z,97125.00
2023-05-16T03:58:25.501Z,97119.00
2023-05-16T04:00:53.614Z,97115.00
2023-05-16T04:03:28.138Z,97115.00
2023-05-16T04:05:57.216Z,97127.00
2023-05-16T04:08:25.703Z,97118.00
2023-05-16T04:10:53.823Z,97137.00
2023-05-16T04:13:23.430Z,97116.00
2023-05-16T04:15:51.690Z,97120.00
2023-05-16T04:18:19.985Z,97132.00
2023-05-16T04:20:48.562Z,97123.00
2023-05-16T04:23:16.660Z,97118.00
2023-05-16T04:25:44.875Z,97122.00
2023-05-16T04:28:13.478Z,97122.00
2023-05-16T04:30:43.050Z,97124.00
2023-05-16T04:33:11.853Z,97126.00
2023-05-16T04:35:40.253Z,97120.00
2023-05-16T04:38:08.556Z,97127.00
2023-05-16T04:40:36.677Z,97128.00
2023-05-16T04:43:04.822Z,97127.00
2023-05-16T04:45:33.854Z,97130.00
2023-05-16T04:48:05.119Z,97134.00
2023-05-16T04:50:33.424Z,97140.00
2023-05-16T04:53:01.726Z,97135.00
2023-05-16T04:55:30.160Z,97133.00
2023-05-16T04:57:58.646Z,97140.00
2023-05-16T05:00:27.104Z,97140.00
2023-05-16T05:02:55.596Z,97136.00
2023-05-16T05:05:25.465Z,97134.00
2023-05-16T05:07:54.138Z,97143.00
2023-05-16T05:10:22.443Z,97149.00
2023-05-16T05:12:50.734Z,97144.00
2023-05-16T05:15:19.124Z,97144.00
2023-05-16T05:17:47.412Z,97160.00
2023-05-16T05:20:15.882Z,97153.00
2023-05-16T05:22:45.368Z,97141.00
2023-05-16T05:25:13.964Z,97162.00
2023-05-16T05:27:42.355Z,97143.00
2023-05-16T05:30:11.619Z,97144.00
2023-05-16T05:32:40.037Z,97153.00
2023-05-16T05:35:08.882Z,97156.00
2023-05-16T05:37:37.079Z,97155.00
2023-05-16T05:40:08.790Z,97154.00
2023-05-16T05:42:36.881Z,97159.00
2023-05-16T05:45:06.408Z,97165.00
2023-05-16T05:47:34.767Z,97159.00
2023-05-16T05:50:04.680Z,97155.00
2023-05-16T05:52:33.158Z,97156.00
2023-05-16T05:55:01.291Z,97158.00
2023-05-16T05:57:30.919Z,97153.00
2023-05-16T05:59:59.134Z,97153.00
2023-05-16T06:02:27.958Z,97164.00
2023-05-16T06:04:56.234Z,97155.00
2023-05-16T06:07:24.352Z,97168.00
2023-05-16T06:09:52.486Z,97161.00
2023-05-16T06:12:20.630Z,97158.00
2023-05-16T06:14:50.128Z,97152.00
2023-05-16T06:17:18.366Z,97156.00
2023-05-16T06:19:47.008Z,97156.00
2023-05-16T06:22:15.159Z,97159.00
2023-05-16T06:24:43.230Z,97165.00
2023-05-16T06:27:11.701Z,97156.00
2023-05-16T06:29:39.774Z,97150.00
2023-05-16T06:32:11.740Z,97155.00
2023-05-16T06:34:44.447Z,97165.00
2023-05-16T06:37:12.530Z,97158.00
2023-05-16T06:39:40.639Z,97164.00
2023-05-16T06:42:08.825Z,97158.00
2023-05-16T06:44:38.992Z,97153.00
2023-05-16T06:47:08.786Z,97169.00
2023-05-16T06:49:37.040Z,97153.00
2023-05-16T06:52:06.103Z,97157.00
2023-05-16T06:54:35.115Z,97167.00
2023-05-16T06:57:03.950Z,97156.00
2023-05-16T06:59:32.596Z,97147.00
2023-05-16T07:02:01.006Z,97159.00
2023-05-16T07:04:30.692Z,97160.00
2023-05-16T07:06:59.003Z,97166.00
2023-05-16T07:09:27.143Z,97175.00
2023-05-16T07:11:55.420Z,97174.00
2023-05-16T07:14:23.569Z,97165.00
2023-05-16T07:16:51.769Z,97168.00
2023-05-16T07:19:20.126Z,97159.00
2023-05-16T07:21:49.879Z,97160.00
2023-05-16T07:24:18.024Z,97173.00
2023-05-16T07:26:46.307Z,97161.00
2023-05-16T07:29:14.527Z,97168.00
2023-05-16T07:31:45.647Z,97163.00
2023-05-16T07:34:16.137Z,97168.00
2023-05-16T07:36:44.377Z,97161.00
2023-05-16T07:39:14.599Z,97158.00
2023-05-16T07:41:42.738Z,97154.00
2023-05-16T07:44:10.996Z,97160.00
2023-05-16T07:46:39.604Z,97183.00
2023-05-16T07:49:07.998Z,97180.00
2023-05-16T07:51:36.572Z,97178.00
2023-05-16T07:54:05.004Z,97189.00
2023-05-16T07:56:34.917Z,97171.00
2023-05-16T07:59:03.300Z,97172.00
2023-05-16T08:01:31.603Z,97178.00
2023-05-16T08:03:59.947Z,97164.00
2023-05-16T08:06:28.126Z,97168.00
2023-05-16T08:08:56.385Z,97181.00
2023-05-16T08:11:24.603Z,97173.00
2023-05-16T08:13:54.257Z,97179.00
2023-05-16T08:16:22.411Z,97196.00
2023-05-16T08:18:50.899Z,97183.00
2023-05-16T08:21:19.255Z,97196.00
2023-05-16T08:23:47.463Z,97194.00
2023-05-16T08:26:16.351Z,97195.00
2023-05-16T08:28:44.559Z,97202.00
2023-05-16T08:31:16.554Z,97203.00
2023-05-16T08:33:44.894Z,97201.00
2023-05-16T08:36:13.109Z,97200.00
2023-05-16T08:38:41.284Z,97200.00
2023-05-16T08:41:09.584Z,97195.00
2023-05-16T08:43:37.802Z,97191.00
2023-05-16T08:46:08.298Z,97184.00
2023-05-16T08:48:39.666Z,97168.00
2023-05-16T08:51:10.806Z,97175.00
2023-05-16T08:53:46.431Z,97169.00
2023-05-16T08:56:17.272Z,97174.00
2023-05-16T08:58:46.487Z,97173.00
2023-05-16T09:01:15.219Z,97173.00
2023-05-16T09:03:45.658Z,97172.00
2023-05-16T09:06:14.260Z,97179.00
2023-05-16T09:08:43.130Z,97182.00
2023-05-16T09:11:11.578Z,97186.00
2023-05-16T09:13:40.767Z,97180.00
2023-05-16T09:16:14.611Z,97184.00
2023-05-16T09:18:47.981Z,97191.00
2023-05-16T09:21:17.125Z,97191.00
2023-05-16T09:23:46.512Z,97194.00
2023-05-16T09:26:14.882Z,97192.00
2023-05-16T09:28:44.433Z,97195.00
2023-05-16T09:31:24.933Z,97194.00
2023-05-16T09:33:55.195Z,97196.00
2023-05-16T09:36:23.513Z,97206.00
2023-05-16T09:38:52.719Z,97221.00
2023-05-16T09:41:22.985Z,97218.00
2023-05-16T09:43:51.532Z,97203.00
2023-05-16T09:46:20.400Z,97212.00
2023-05-16T09:48:49.366Z,97211.00
2023-05-16T09:51:24.064Z,97207.00
2023-05-16T09:53:53.416Z,97213.00
2023-05-16T09:56:21.653Z,97195.00
2023-05-16T09:58:53.229Z,97200.00
2023-05-16T10:01:22.400Z,97210.00
2023-05-16T10:03:51.946Z,97203.00
2023-05-16T10:06:22.839Z,97210.00
2023-05-16T10:08:52.353Z,97204.00
2023-05-16T10:11:21.650Z,97216.00
2023-05-16T10:13:53.815Z,97203.00
2023-05-16T10:16:24.964Z,97196.00
2023-05-16T10:18:54.690Z,97204.00
2023-05-16T10:21:27.373Z,97212.00
2023-05-16T10:24:00.368Z,97195.00
2023-05-16T10:26:29.186Z,97195.00
2023-05-16T10:28:57.915Z,97205.00
2023-05-16T10:31:30.112Z,97196.00
2023-05-16T10:33:58.789Z,97197.00
2023-05-16T10:36:28.915Z,97209.00
2023-05-16T10:38:58.295Z,97193.00
2023-05-16T10:41:27.492Z,97193.00
2023-05-16T10:44:01.182Z,97207.00
2023-05-16T10:46:30.284Z,97211.00
2023-05-16T10:48:58.950Z,97213.00
2023-05-16T10:51:39.535Z,97221.00
2023-05-16T10:54:12.758Z,97211.00
2023-05-16T10:56:41.420Z,97211.00
2023-05-16T10:59:26.498Z,97207.00
2023-05-16T11:01:56.703Z,97203.00
2023-05-16T11:04:25.324Z,97206.00
2023-05-16T11:06:59.887Z,97201.00
2023-05-16T11:09:28.782Z,97202.00
2023-05-16T11:12:02.924Z,97199.00
2023-05-16T11:14:39.182Z,97199.00
2023-05-16T11:17:13.613Z,97194.00
2023-05-16T11:19:45.853Z,97187.00
2023-05-16T11:22:27.434Z,97176.00
2023-05-16T11:25:00.336Z,97195.00
2023-05-16T11:27:31.404Z,97190.00
2023-05-16T11:30:14.349Z,97197.00
2023-05-16T11:32:44.950Z,97201.00
2023-05-16T11:35:15.367Z,97209.00
2023-05-16T11:37:46.884Z,97199.00
2023-05-16T11:40:17.363Z,97205.00
2023-05-16T11:42:47.690Z,97201.00
2023-05-16T11:45:18.181Z,97197.00
2023-05-16T11:47:48.571Z,97193.00
2023-05-16T11:50:19.177Z,97195.00
2023-05-16T11:52:53.698Z,97201.00
2023-05-16T11:55:40.567Z,97201.00
2023-05-16T11:58:10.167Z,97200.00
2023-05-16T12:00:38.499Z,97202.00
2023-05-16T12:03:08.186Z,97205.00
2023-05-16T12:05:36.634Z,97222.00
2023-05-16T12:08:07.175Z,97210.00
2023-05-16T12:10:35.770Z,97207.00
2023-05-16T12:13:05.178Z,97202.00
2023-05-16T12:15:34.357Z,97207.00
2023-05-16T12:18:03.539Z,97213.00
2023-05-16T12:20:31.986Z,97205.00
2023-05-16T12:23:00.371Z,97209.00
2023-05-16T12:25:32.939Z,97211.00
2023-05-16T12:28:03.585Z,97215.00
2023-05-16T12:30:33.574Z,97213.00
2023-05-16T12:33:07.703Z,97219.00
2023-05-16T12:35:40.158Z,97225.00
2023-05-16T12:38:10.543Z,97219.00
2023-05-16T12:40:42.489Z,97228.00
2023-05-16T12:43:15.719Z,97233.00
2023-05-16T12:45:50.309Z,97229.00
2023-05-16T12:48:18.691Z,97228.00
2023-05-16T12:50:47.315Z,97219.00
2023-05-16T12:53:17.951Z,97234.00
2023-05-16T12:55:47.954Z,97245.00
2023-05-16T12:58:16.405Z,97240.00
2023-05-16T13:00:44.744Z,97243.00
2023-05-16T13:03:13.066Z,97236.00
2023-05-16T13:05:41.564Z,97254.00
2023-05-16T13:08:09.743Z,97240.00
2023-05-16T13:10:37.948Z,97242.00
2023-05-16T13:13:07.485Z,97240.00
2023-05-16T13:15:35.918Z,97233.00
2023-05-16T13:18:04.442Z,97245.00
2023-05-16T13:20:32.749Z,97253.00
2023-05-16T13:23:01.020Z,97243.00
2023-05-16T13:25:29.628Z,97244.00
2023-05-16T13:27:58.093Z,97245.00
2023-05-16T13:30:29.014Z,97243.00
2023-05-16T13:32:57.331Z,97252.00
2023-05-16T13:35:26.609Z,97242.00
2023-05-16T13:37:55.052Z,97260.00
2023-05-16T13:40:23.517Z,97259.00
2023-05-16T13:42:51.707Z,97257.00
2023-05-16T13:45:20.209Z,97248.00
2023-05-16T13:47:49.992Z,97256.00
2023-05-16T13:50:18.493Z,97248.00
2023-05-16T13:52:47.508Z,97261.00
2023-05-16T13:55:16.118Z,97246.00
2023-05-16T13:57:44.517Z,97256.00
2023-05-16T14:02:45.233Z,97265.00
2023-05-16T14:05:15.016Z,97271.00
2023-05-16T14:07:45.361Z,97268.00
2023-05-16T14:10:15.164Z,97290.00
2023-05-16T14:12:43.667Z,97292.00
2023-05-16T14:15:12.210Z,97284.00
2023-05-16T14:17:40.634Z,97285.00
2023-05-16T14:20:10.649Z,97285.00
2023-05-16T14:22:40.305Z,97286.00
2023-05-16T14:25:09.801Z,97301.00
2023-05-16T14:27:38.324Z,97301.00
2023-05-16T14:30:09.551Z,97302.00
2023-05-16T14:32:37.902Z,97308.00
2023-05-16T14:35:07.070Z,97316.00
2023-05-16T14:37:35.293Z,97310.00
2023-05-16T14:40:06.382Z,97328.00
2023-05-16T14:42:34.581Z,97324.00
2023-05-16T14:45:03.185Z,97327.00
2023-05-16T14:47:31.750Z,97324.00
2023-05-16T14:50:01.090Z,97326.00
2023-05-16T14:52:29.328Z,97329.00
2023-05-16T14:54:57.549Z,97335.00
2023-05-16T14:57:27.149Z,97322.00
2023-05-16T14:59:55.529Z,97330.00
2023-05-16T15:02:23.835Z,97338.00
2023-05-16T15:04:54.140Z,97338.00
2023-05-16T15:07:22.490Z,97337.00
2023-05-16T15:09:50.746Z,97332.00
2023-05-16T15:12:18.973Z,97341.00
2023-05-16T15:14:48.508Z,97342.00
2023-05-16T15:17:24.064Z,97336.00
2023-05-16T15:19:54.189Z,97357.00
2023-05-16T15:22:22.382Z,97346.00
2023-05-16T15:24:50.574Z,97341.00
2023-05-16T15:27:18.734Z,97343.00
2023-05-16T15:29:48.257Z,97348.00
2023-05-16T15:32:18.313Z,97344.00
2023-05-16T15:34:46.768Z,97351.00
2023-05-16T15:37:15.083Z,97345.00
2023-05-16T15:39:43.508Z,97351.00
2023-05-16T15:42:12.547Z,97353.00
2023-05-16T15:44:41.147Z,97361.00
2023-05-16T15:47:10.772Z,97362.00
2023-05-16T15:49:39.003Z,97371.00
2023-05-16T15:52:07.412Z,97372.00
2023-05-16T15:54:36.786Z,97360.00
2023-05-16T15:57:05.480Z,97369.00
2023-05-16T16:04:27.384Z,97382.00
2023-05-16T16:06:56.144Z,97386.00
2023-05-16T16:09:24.540Z,97390.00
2023-05-16T16:11:56.214Z,97368.00
2023-05-16T16:14:25.470Z,97366.00
2023-05-16T16:16:53.722Z,97364.00
2023-05-16T16:19:22.187Z,97366.00
2023-05-16T16:21:52.072Z,97379.00
2023-05-16T16:24:21.105Z,97379.00
2023-05-16T16:26:49.308Z,97381.00
2023-05-16T16:29:17.594Z,97395.00
2023-05-16T16:31:45.826Z,97405.00
2023-05-16T16:34:14.088Z,97404.00
2023-05-16T16:36:42.328Z,97392.00
2023-05-16T16:39:11.863Z,97406.00
2023-05-16T16:41:40.294Z,97400.00
2023-05-16T16:44:08.490Z,97406.00
2023-05-16T16:46:36.729Z,97405.00
2023-05-16T16:49:09.644Z,97409.00
2023-05-16T16:51:37.851Z,97405.00
2023-05-16T16:54:06.135Z,97408.00
2023-05-16T16:56:36.099Z,97425.00
2023-05-16T16:59:04.287Z,97439.00
2023-05-16T17:01:32.858Z,97422.00
2023-05-16T17:04:02.099Z,97440.00
2023-05-16T17:06:30.785Z,97429.00
2023-05-16T17:09:02.420Z,97438.00
2023-05-16T17:11:30.949Z,97437.00
2023-05-16T17:14:00.967Z,97444.00
2023-05-16T17:16:29.650Z,97446.00
2023-05-16T17:18:57.996Z,97476.00
2023-05-16T17:21:26.703Z,97467.00
2023-05-16T17:23:55.189Z,97469.00
2023-05-16T17:26:23.337Z,97468.00
2023-05-16T17:28:51.700Z,97481.00
2023-05-16T17:31:21.603Z,97492.00
2023-05-16T17:33:49.831Z,97480.00
2023-05-16T17:36:18.146Z,97478.00
2023-05-16T17:38:46.507Z,97485.00
2023-05-16T17:41:15.007Z,97482.00
2023-05-16T17:43:45.360Z,97497.00
2023-05-16T17:46:14.415Z,97495.00
2023-05-16T17:48:44.899Z,97495.00
2023-05-16T17:51:13.242Z,97496.00
2023-05-16T17:53:41.693Z,97501.00
2023-05-16T17:56:10.082Z,97502.00
2023-05-16T17:58:39.178Z,97496.00
2023-05-16T18:01:09.254Z,97519.00
2023-05-16T18:03:38.648Z,97517.00
2023-05-16T18:06:09.295Z,97525.00
2023-05-16T18:08:37.670Z,97524.00
2023-05-16T18:11:06.170Z,97518.00
2023-05-16T18:13:34.542Z,97519.00
2023-05-16T18:16:03.788Z,97522.00
2023-05-16T18:18:32.081Z,97516.00
2023-05-16T18:21:00.446Z,97522.00
2023-05-16T18:23:30.188Z,97516.00
2023-05-16T18:25:58.563Z,97519.00
2023-05-16T18:28:26.986Z,97529.00
2023-05-16T18:30:56.476Z,97528.00
2023-05-16T18:33:24.926Z,97532.00
2023-05-16T18:35:53.165Z,97522.00
2023-05-16T18:38:32.158Z,97529.00
2023-05-16T18:41:03.343Z,97519.00
2023-05-16T18:43:35.154Z,97534.00
2023-05-16T18:46:03.985Z,97532.00
2023-05-16T18:48:34.685Z,97532.00
2023-05-16T18:51:04.911Z,97538.00
2023-05-16T18:53:33.244Z,97538.00
2023-05-16T18:56:02.989Z,97538.00
2023-05-16T18:58:31.544Z,97541.00
2023-05-16T19:00:59.824Z,97537.00
2023-05-16T19:03:28.258Z,97542.00
2023-05-16T19:05:56.778Z,97539.00
2023-05-16T19:08:27.170Z,97539.00
2023-05-16T19:10:59.646Z,97551.00
2023-05-16T19:13:32.114Z,97540.00
2023-05-16T19:16:00.400Z,97542.00
2023-05-16T19:18:29.196Z,97560.00
2023-05-16T19:20:57.704Z,97568.00
2023-05-16T19:23:26.179Z,97560.00
2023-05-16T19:25:54.620Z,97550.00
2023-05-16T19:28:24.499Z,97568.00
2023-05-16T19:30:54.206Z,97578.00
2023-05-16T19:33:22.469Z,97560.00
2023-05-16T19:35:51.602Z,97569.00
2023-05-16T19:38:20.561Z,97579.00
2023-05-16T19:40:48.975Z,97579.00
2023-05-16T19:43:17.395Z,97579.00
2023-05-16T19:45:45.809Z,97590.00
2023-05-16T19:48:15.493Z,97590.00
2023-05-16T19:50:43.888Z,97590.00
2023-05-16T19:53:12.167Z,97597.00
2023-05-16T19:55:40.662Z,97587.00
2023-05-16T19:58:08.968Z,97607.00
2023-05-16T20:00:37.282Z,97605.00
2023-05-16T20:03:05.543Z,97614.00
2023-05-16T20:05:35.232Z,97605.00
2023-05-16T20:08:03.480Z,97599.00
2023-05-16T20:10:31.702Z,97605.00
2023-05-16T20:12:59.944Z,97602.00
2023-05-16T20:15:28.510Z,97595.00
2023-05-16T20:17:57.104Z,97611.00
2023-05-16T20:20:25.373Z,97605.00
2023-05-16T20:22:54.938Z,97607.00
2023-05-16T20:25:23.322Z,97613.00
2023-05-16T20:27:51.645Z,97615.00
2023-05-16T20:30:19.950Z,97613.00
2023-05-16T20:32:48.293Z,97619.00
2023-05-16T20:35:16.768Z,97625.00
2023-05-16T20:37:45.187Z,97611.00
2023-05-16T20:40:15.114Z,97628.00
2023-05-16T20:42:45.478Z,97641.00
2023-05-16T20:45:13.882Z,97632.00
2023-05-16T20:47:42.172Z,97629.00
2023-05-16T20:50:11.612Z,97620.00
2023-05-16T20:52:39.889Z,97608.00
2023-05-16T20:55:09.109Z,97626.00
2023-05-16T20:57:38.726Z,97636.00
2023-05-16T21:00:08.921Z,97630.00
2023-05-16T21:02:37.162Z,97646.00
2023-05-16T21:05:23.220Z,97649.00
2023-05-16T21:07:52.961Z,97648.00
2023-05-16T21:10:21.415Z,97640.00
2023-05-16T21:12:51.168Z,97653.00
2023-05-16T21:15:21.603Z,97630.00
2023-05-16T21:17:51.297Z,97642.00
2023-05-16T21:20:19.682Z,97636.00
2023-05-16T21:22:47.852Z,97645.00
2023-05-16T21:25:16.033Z,97655.00
2023-05-16T21:27:44.242Z,97653.00
2023-05-16T21:30:15.431Z,97649.00
2023-05-16T21:32:43.599Z,97644.00
2023-05-16T21:35:11.853Z,97659.00
2023-05-16T21:37:40.712Z,97651.00
2023-05-16T21:40:10.349Z,97661.00
2023-05-16T21:42:38.513Z,97663.00
2023-05-16T21:45:12.435Z,97665.00
2023-05-16T21:47:42.048Z,97661.00
2023-05-16T21:50:11.426Z,97676.00
2023-05-16T21:52:39.840Z,97671.00
2023-05-16T21:55:09.762Z,97676.00
2023-05-16T21:57:37.955Z,97696.00
2023-05-16T22:00:09.715Z,97692.00
2023-05-16T22:02:38.308Z,97686.00
2023-05-16T22:05:09.507Z,97678.00
2023-05-16T22:07:38.344Z,97689.00
2023-05-16T22:10:08.326Z,97686.00
2023-05-16T22:12:36.520Z,97681.00
2023-05-16T22:15:05.718Z,97691.00
2023-05-16T22:17:34.074Z,97693.00
2023-05-16T22:20:02.490Z,97687.00
2023-05-16T22:22:32.170Z,97688.00
2023-05-16T22:25:00.627Z,97704.00
2023-05-16T22:27:28.829Z,97695.00
2023-05-16T22:29:57.061Z,97697.00
2023-05-16T22:32:25.347Z,97700.00
2023-05-16T22:34:53.995Z,97700.00
2023-05-16T22:37:22.249Z,97709.00
2023-05-16T22:39:53.148Z,97688.00
2023-05-16T22:42:21.329Z,97697.00
2023-05-16T22:44:50.092Z,97700.00
2023-05-16T22:47:18.452Z,97706.00
2023-05-16T22:49:46.651Z,97710.00
2023-05-16T22:52:14.858Z,97712.00
2023-05-16T22:54:43.042Z,97703.00
2023-05-16T22:57:12.562Z,97724.00
2023-05-16T22:59:40.775Z,97734.00
2023-05-16T23:02:08.937Z,97728.00
2023-05-16T23:04:37.209Z,97728.00
2023-05-16T23:07:05.828Z,97742.00
2023-05-16T23:09:34.162Z,97731.00
2023-05-16T23:12:02.609Z,97736.00
2023-05-16T23:14:32.194Z,97745.00
2023-05-16T23:17:00.383Z,97751.00
2023-05-16T23:19:28.700Z,97746.00
2023-05-16T23:21:56.919Z,97749.00
2023-05-16T23:24:25.209Z,97749.00
2023-05-16T23:26:53.397Z,97750.00
2023-05-16T23:29:21.667Z,97762.00
2023-05-16T23:31:51.233Z,97762.00
2023-05-16T23:34:19.413Z,97773.00
2023-05-16T23:36:47.639Z,97755.00
2023-05-16T23:39:15.908Z,97777.00
2023-05-16T23:41:44.058Z,97778.00
2023-05-16T23:44:12.200Z,97770.00
2023-05-16T23:46:40.398Z,97760.00
2023-05-16T23:49:09.870Z,97776.00
2023-05-16T23:51:55.532Z,97757.00
2023-05-16T23:54:25.450Z,97753.00
2023-05-16T23:56:53.769Z,97762.00
2023-05-16T23:59:22.186Z,97775.00
